地図

経路データ

SID SEASON NUMBER BASIN SUBBASIN NAME ISO_TIME NATURE LAT LON WMO_WIND WMO_PRES WMO_AGENCY TRACK_TYPE DIST2LAND LANDFALL IFLAG USA_AGENCY USA_ATCF_ID USA_LAT USA_LON USA_RECORD USA_STATUS USA_WIND USA_PRES USA_SSHS USA_R34_NE USA_R34_SE USA_R34_SW USA_R34_NW USA_R50_NE USA_R50_SE USA_R50_SW USA_R50_NW USA_R64_NE USA_R64_SE USA_R64_SW USA_R64_NW USA_POCI USA_ROCI USA_RMW USA_EYE TOKYO_LAT TOKYO_LON TOKYO_GRADE TOKYO_WIND TOKYO_PRES TOKYO_R50_DIR TOKYO_R50_LONG TOKYO_R50_SHORT TOKYO_R30_DIR TOKYO_R30_LONG TOKYO_R30_SHORT TOKYO_LAND CMA_LAT CMA_LON CMA_CAT CMA_WIND CMA_PRES HKO_LAT HKO_LON HKO_CAT HKO_WIND HKO_PRES NEWDELHI_LAT NEWDELHI_LON NEWDELHI_GRADE NEWDELHI_WIND NEWDELHI_PRES NEWDELHI_CI NEWDELHI_DP NEWDELHI_POCI REUNION_LAT REUNION_LON REUNION_TYPE REUNION_WIND REUNION_PRES REUNION_TNUM REUNION_CI REUNION_RMW REUNION_R34_NE REUNION_R34_SE REUNION_R34_SW REUNION_R34_NW REUNION_R50_NE REUNION_R50_SE REUNION_R50_SW REUNION_R50_NW REUNION_R64_NE REUNION_R64_SE REUNION_R64_SW REUNION_R64_NW BOM_LAT BOM_LON BOM_TYPE BOM_WIND BOM_PRES BOM_TNUM BOM_CI BOM_RMW BOM_R34_NE BOM_R34_SE BOM_R34_SW BOM_R34_NW BOM_R50_NE BOM_R50_SE BOM_R50_SW BOM_R50_NW BOM_R64_NE BOM_R64_SE BOM_R64_SW BOM_R64_NW BOM_ROCI BOM_POCI BOM_EYE BOM_POS_METHOD BOM_PRES_METHOD NADI_LAT NADI_LON NADI_CAT NADI_WIND NADI_PRES WELLINGTON_LAT WELLINGTON_LON WELLINGTON_WIND WELLINGTON_PRES DS824_LAT DS824_LON DS824_STAGE DS824_WIND DS824_PRES TD9636_LAT TD9636_LON TD9636_STAGE TD9636_WIND TD9636_PRES TD9635_LAT TD9635_LON TD9635_WIND TD9635_PRES TD9635_ROCI NEUMANN_LAT NEUMANN_LON NEUMANN_CLASS NEUMANN_WIND NEUMANN_PRES MLC_LAT MLC_LON MLC_CLASS MLC_WIND MLC_PRES USA_GUST BOM_GUST BOM_GUST_PER REUNION_GUST REUNION_GUST_PER USA_SEAHGT USA_SEARAD_NE USA_SEARAD_SE USA_SEARAD_SW USA_SEARAD_NW STORM_SPEED STORM_DIR
1879322N22287 1879 33 NA NA NOT_NAMED 1879-11-18 00:00:00 TS 21.7000 -73.5000 60 hurdat_atl main 63 63 O_____________ hurdat_atl AL081879 21.7000 -73.5000 TS 60 0 7 4
1879322N22287 1879 33 NA NA NOT_NAMED 1879-11-18 03:00:00 TS 22.0725 -73.5000 main 105 105 P_____________ AL081879 22.0725 -73.5000 TS 60 0 8 1
1879322N22287 1879 33 NA NA NOT_NAMED 1879-11-18 06:00:00 TS 22.5000 -73.5000 60 hurdat_atl main 148 148 O_____________ hurdat_atl AL081879 22.5000 -73.5000 TS 60 0 9 0
1879322N22287 1879 33 NA NA NOT_NAMED 1879-11-18 09:00:00 TS 23.0075 -73.5000 main 203 203 P_____________ AL081879 23.0075 -73.5000 TS 60 0 10 1
1879322N22287 1879 33 NA NA NOT_NAMED 1879-11-18 12:00:00 TS 23.5000 -73.5000 60 hurdat_atl main 258 258 O_____________ hurdat_atl AL081879 23.5000 -73.5000 TS 60 0 8 0
1879322N22287 1879 33 NA NA NOT_NAMED 1879-11-18 15:00:00 TS 23.8500 -73.5000 main 292 292 P_____________ AL081879 23.8500 -73.5000 TS 60 0 7 0
1879322N22287 1879 33 NA NA NOT_NAMED 1879-11-18 18:00:00 TS 24.2000 -73.5000 60 hurdat_atl main 336 336 O_____________ hurdat_atl AL081879 24.2000 -73.5000 TS 60 0 8 2
1879322N22287 1879 33 NA NA NOT_NAMED 1879-11-18 21:00:00 TS 24.6700 -73.5000 main 392 392 P_____________ AL081879 24.6700 -73.5000 TS 65 1 10 1
1879322N22287 1879 33 NA NA NOT_NAMED 1879-11-19 00:00:00 TS 25.2000 -73.5000 70 hurdat_atl main 430 430 O_____________ hurdat_atl AL081879 25.2000 -73.5000 HU 70 1 10 0
1879322N22287 1879 33 NA NA NOT_NAMED 1879-11-19 03:00:00 TS 25.6975 -73.5000 main 443 443 P_____________ AL081879 25.6975 -73.5000 HU 70 1 11 0
1879322N22287 1879 33 NA NA NOT_NAMED 1879-11-19 06:00:00 TS 26.3000 -73.5000 70 hurdat_atl main 466 466 O_____________ hurdat_atl AL081879 26.3000 -73.5000 HU 70 1 13 358
1879322N22287 1879 33 NA NA NOT_NAMED 1879-11-19 09:00:00 TS 27.0375 -73.5362 main 496 496 P_____________ AL081879 27.0375 -73.5362 HU 75 1 17 0
1879322N22287 1879 33 NA NA NOT_NAMED 1879-11-19 12:00:00 TS 28.0000 -73.5000 80 hurdat_atl main 552 552 O_____________ hurdat_atl AL081879 28.0000 -73.5000 HU 80 1 22 5
1879322N22287 1879 33 NA NA NOT_NAMED 1879-11-19 15:00:00 TS 29.2100 -73.3240 main 652 571 P_____________ AL081879 29.2100 -73.3240 HU 80 1 26 10
1879322N22287 1879 33 NA NA NOT_NAMED 1879-11-19 18:00:00 TS 30.6000 -73.0000 80 hurdat_atl main 562 470 O_____________ hurdat_atl AL081879 30.6000 -73.0000 HU 80 1 29 12
1879322N22287 1879 33 NA NA NOT_NAMED 1879-11-19 21:00:00 TS 32.0341 -72.6092 main 470 416 P_____________ AL081879 32.0341 -72.6092 HU 85 2 30 16
1879322N22287 1879 33 NA NA NOT_NAMED 1879-11-20 00:00:00 TS 33.5000 -72.0000 90 hurdat_atl main 409 394 O_____________ hurdat_atl AL081879 33.5000 -72.0000 HU 90 2 32 24
1879322N22287 1879 33 NA NA NOT_NAMED 1879-11-20 03:00:00 TS 34.9157 -71.0753 main 410 410 P_____________ AL081879 34.9157 -71.0753 HU 90 2 33 30
1879322N22287 1879 33 NA NA NOT_NAMED 1879-11-20 06:00:00 TS 36.3000 -70.0000 90 hurdat_atl main 496 465 O_____________ hurdat_atl AL081879 36.3000 -70.0000 HU 90 2 31 31
1879322N22287 1879 33 NA NA NOT_NAMED 1879-11-20 09:00:00 TS 37.5942 -69.0771 main 455 350 P_____________ AL081879 37.5942 -69.0771 HU 85 2 31 30
1879322N22287 1879 33 NA NA NOT_NAMED 1879-11-20 12:00:00 ET 39.0000 -68.0000 80 hurdat_atl main 344 304 O_____________ hurdat_atl AL081879 39.0000 -68.0000 EX 80 -4 37 33
1879322N22287 1879 33 NA NA NOT_NAMED 1879-11-20 15:00:00 ET 40.7071 -66.4784 main 312 126 P_____________ AL081879 40.7071 -66.4784 EX 80 -4 43 35
1879322N22287 1879 33 NA NA NOT_NAMED 1879-11-20 18:00:00 ET 42.5000 -64.8000 80 968 hurdat_atl main 118 36 O_____________ hurdat_atl AL081879 42.5000 -64.8000 EX 80 968 -4 42 34
1879322N22287 1879 33 NA NA NOT_NAMED 1879-11-20 21:00:00 ET 44.1471 -63.2801 main 40 0 P_____________ AL081879 44.1471 -63.2801 EX 75 -4 39 33
1879322N22287 1879 33 NA NA NOT_NAMED 1879-11-21 00:00:00 ET 45.8000 -61.8000 70 hurdat_atl main 15 0 O_____________ hurdat_atl AL081879 45.8000 -61.8000 EX 70 -4 40 32
1879322N22287 1879 33 NA NA NOT_NAMED 1879-11-21 03:00:00 ET 47.5182 -60.2544 main 68 13 P_____________ AL081879 47.5182 -60.2544 EX 65 -4 41 31
1879322N22287 1879 33 NA NA NOT_NAMED 1879-11-21 06:00:00 ET 49.3000 -58.7000 60 hurdat_atl main 36 7 O_____________ hurdat_atl AL081879 49.3000 -58.7000 EX 60 -4 43 30
1879322N22287 1879 33 NA NA NOT_NAMED 1879-11-21 09:00:00 ET 51.2640 -56.9946 main 11 0 P_____________ AL081879 51.2640 -56.9946 EX 55 -4 42 28
1879322N22287 1879 33 NA NA NOT_NAMED 1879-11-21 12:00:00 ET 53.0000 -55.5000 50 hurdat_atl main 22 22 O_____________ hurdat_atl AL081879 53.0000 -55.5000 EX 50 -4 32 27
1879322N22287 1879 33 NA NA NOT_NAMED 1879-11-21 15:00:00 ET 54.1727 -54.5650 main 112 112 P_____________ AL081879 54.1727 -54.5650 EX 50 -4 22 24
1879322N22287 1879 33 NA NA NOT_NAMED 1879-11-21 18:00:00 ET 55.0000 -54.0000 50 hurdat_atl main 201 O_____________ hurdat_atl AL081879 55.0000 -54.0000 EX 50 -4 18 21

IBTrACS Databaseについて

本データベースは、米国NOAAが公開する1842年以降の世界の熱帯低気圧のベストトラックデータアーカイブInternational Best Track Archive for Climate Stewardship (IBTrACS)を、ウェブで閲覧しやすい形式に変換したものです。

最終更新日:2021-10-27